GLO1434 SBSP-SBGO
Flight info
| Callsign | GLO1434 |
|---|---|
| Flight time | 1h 27m |
| Altitude | 36000 |
| Route | GERTU UZ25 PUGOR UZ25 CORVO |
| Aircraft | B738/M-SDE2E3FGHIRWXY/LB1 |
Departure
| Time | 2026-05-08 17:16 |
|---|---|
| Airport | Congonhas–Deputado Freitas Nobre Airport (SBSP) |
Arrival
| Time | 2026-05-08 18:44 |
|---|---|
| Airport | Santa Genoveva International Airport (SBGO) |
| Time | Latitude | Longitude | Altitude | Speed | Heading |
|---|---|---|---|---|---|
| 2026-05-08 16:59 | -23.62812 | -46.65754 | 2600 ft | 0 kts | 238° |
| 2026-05-08 17:09 | -23.62807 | -46.65746 | 2600 ft | 3 kts | 236° |
| 2026-05-08 17:10 | -23.62793 | -46.65732 | 2600 ft | 3 kts | 198° |
| 2026-05-08 17:10 | -23.62775 | -46.65730 | 2600 ft | 3 kts | 160° |
| 2026-05-08 17:10 | -23.62758 | -46.65741 | 2600 ft | 1 kts | 144° |
| 2026-05-08 17:12 | -23.62759 | -46.65740 | 2600 ft | 1 kts | 144° |
| 2026-05-08 17:13 | -23.62784 | -46.65720 | 2600 ft | 7 kts | 144° |
| 2026-05-08 17:13 | -23.62837 | -46.65673 | 2601 ft | 12 kts | 114° |
| 2026-05-08 17:13 | -23.62899 | -46.65593 | 2602 ft | 17 kts | 146° |
| 2026-05-08 17:13 | -23.63015 | -46.65523 | 2602 ft | 21 kts | 169° |
| 2026-05-08 17:14 | -23.63147 | -46.65458 | 2601 ft | 21 kts | 145° |
| 2026-05-08 17:14 | -23.63267 | -46.65373 | 2601 ft | 20 kts | 146° |
| 2026-05-08 17:14 | -23.63378 | -46.65298 | 2601 ft | 10 kts | 147° |
| 2026-05-08 17:14 | -23.63439 | -46.65255 | 2601 ft | 11 kts | 148° |
| 2026-05-08 17:15 | -23.63503 | -46.65197 | 2599 ft | 13 kts | 107° |
| 2026-05-08 17:15 | -23.63459 | -46.65121 | 2592 ft | 11 kts | 54° |
| 2026-05-08 17:15 | -23.63417 | -46.65128 | 2601 ft | 6 kts | 328° |
| 2026-05-08 17:15 | -23.63215 | -46.65267 | 2609 ft | 70 kts | 328° |
| 2026-05-08 17:16 | -23.62603 | -46.65687 | 2606 ft | 135 kts | 330° |
| 2026-05-08 17:16 | -23.61725 | -46.66280 | 3048 ft | 155 kts | 328° |
| 2026-05-08 17:16 | -23.60792 | -46.66936 | 3850 ft | 157 kts | 327° |
| 2026-05-08 17:16 | -23.59916 | -46.67808 | 4210 ft | 191 kts | 300° |
| 2026-05-08 17:17 | -23.59480 | -46.69296 | 4467 ft | 219 kts | 292° |
| 2026-05-08 17:17 | -23.58980 | -46.70973 | 4796 ft | 243 kts | 292° |
| 2026-05-08 17:17 | -23.58441 | -46.72721 | 5827 ft | 242 kts | 292° |
| 2026-05-08 17:17 | -23.57899 | -46.74461 | 6757 ft | 244 kts | 293° |
| 2026-05-08 17:18 | -23.57345 | -46.76230 | 7520 ft | 251 kts | 294° |
| 2026-05-08 17:18 | -23.56457 | -46.77895 | 8155 ft | 257 kts | 308° |
| 2026-05-08 17:18 | -23.55429 | -46.79497 | 8982 ft | 260 kts | 306° |
| 2026-05-08 17:18 | -23.54402 | -46.81137 | 9823 ft | 264 kts | 306° |
| 2026-05-08 17:19 | -23.53351 | -46.82822 | 10426 ft | 276 kts | 306° |
| 2026-05-08 17:19 | -23.52214 | -46.84637 | 10604 ft | 303 kts | 306° |
| 2026-05-08 17:19 | -23.50980 | -46.86604 | 10820 ft | 325 kts | 306° |
| 2026-05-08 17:19 | -23.49684 | -46.88671 | 11349 ft | 333 kts | 306° |
| 2026-05-08 17:20 | -23.48373 | -46.90763 | 12042 ft | 336 kts | 306° |
| 2026-05-08 17:20 | -23.47060 | -46.92854 | 12684 ft | 341 kts | 306° |
| 2026-05-08 17:20 | -23.45683 | -46.95036 | 13285 ft | 347 kts | 306° |
| 2026-05-08 17:20 | -23.44337 | -46.97184 | 13967 ft | 349 kts | 306° |
| 2026-05-08 17:21 | -23.42951 | -46.99386 | 14446 ft | 355 kts | 306° |
| 2026-05-08 17:21 | -23.41557 | -47.01601 | 15157 ft | 354 kts | 306° |
| 2026-05-08 17:21 | -23.40155 | -47.03825 | 15743 ft | 357 kts | 306° |
| 2026-05-08 17:21 | -23.38750 | -47.06053 | 16427 ft | 358 kts | 306° |
| 2026-05-08 17:22 | -23.37324 | -47.08315 | 16792 ft | 368 kts | 305° |
| 2026-05-08 17:22 | -23.35868 | -47.10622 | 17350 ft | 371 kts | 305° |
| 2026-05-08 17:22 | -23.34390 | -47.12962 | 17769 ft | 378 kts | 305° |
| 2026-05-08 17:22 | -23.32907 | -47.15311 | 18482 ft | 375 kts | 304° |
| 2026-05-08 17:23 | -23.31425 | -47.17655 | 18963 ft | 378 kts | 304° |
| 2026-05-08 17:23 | -23.29898 | -47.20004 | 19440 ft | 380 kts | 309° |
| 2026-05-08 17:23 | -23.27959 | -47.21943 | 20038 ft | 381 kts | 324° |
| 2026-05-08 17:23 | -23.25621 | -47.23342 | 20447 ft | 388 kts | 336° |
| 2026-05-08 17:24 | -23.22992 | -47.24115 | 20882 ft | 395 kts | 346° |
| 2026-05-08 17:24 | -23.20277 | -47.24645 | 21370 ft | 397 kts | 347° |
| 2026-05-08 17:24 | -23.17556 | -47.25194 | 21848 ft | 399 kts | 346° |
| 2026-05-08 17:24 | -23.14825 | -47.25773 | 22299 ft | 401 kts | 345° |
| 2026-05-08 17:25 | -23.12080 | -47.26368 | 22750 ft | 403 kts | 345° |
| 2026-05-08 17:25 | -23.09320 | -47.26970 | 23210 ft | 405 kts | 345° |
| 2026-05-08 17:25 | -23.06550 | -47.27575 | 23613 ft | 408 kts | 345° |
| 2026-05-08 17:25 | -23.03760 | -47.28183 | 23980 ft | 409 kts | 345° |
| 2026-05-08 17:26 | -23.00961 | -47.28792 | 24350 ft | 411 kts | 345° |
| 2026-05-08 17:26 | -22.98149 | -47.29403 | 24705 ft | 413 kts | 345° |
| 2026-05-08 17:26 | -22.95362 | -47.30007 | 25482 ft | 402 kts | 344° |
| 2026-05-08 17:26 | -22.92664 | -47.30588 | 26410 ft | 389 kts | 344° |
| 2026-05-08 17:27 | -22.90058 | -47.31150 | 27380 ft | 376 kts | 344° |
| 2026-05-08 17:27 | -22.87544 | -47.31695 | 28017 ft | 373 kts | 343° |
| 2026-05-08 17:27 | -22.84984 | -47.32254 | 28341 ft | 378 kts | 343° |
| 2026-05-08 17:27 | -22.82382 | -47.32823 | 28575 ft | 385 kts | 344° |
| 2026-05-08 17:28 | -22.79743 | -47.33397 | 28977 ft | 387 kts | 344° |
| 2026-05-08 17:28 | -22.77096 | -47.33969 | 29418 ft | 388 kts | 344° |
| 2026-05-08 17:28 | -22.74439 | -47.34544 | 29836 ft | 390 kts | 344° |
| 2026-05-08 17:28 | -22.71770 | -47.35122 | 30183 ft | 393 kts | 343° |
| 2026-05-08 17:29 | -22.69107 | -47.35802 | 30458 ft | 392 kts | 336° |
| 2026-05-08 17:29 | -22.66595 | -47.36921 | 30751 ft | 390 kts | 329° |
| 2026-05-08 17:29 | -22.64264 | -47.38406 | 31067 ft | 388 kts | 320° |
| 2026-05-08 17:29 | -22.62122 | -47.40174 | 31376 ft | 388 kts | 319° |
| 2026-05-08 17:30 | -22.59991 | -47.41983 | 31660 ft | 390 kts | 318° |
| 2026-05-08 17:30 | -22.57846 | -47.43806 | 31947 ft | 393 kts | 318° |
| 2026-05-08 17:30 | -22.55690 | -47.45625 | 32238 ft | 395 kts | 318° |
| 2026-05-08 17:30 | -22.53515 | -47.47447 | 32529 ft | 396 kts | 318° |
| 2026-05-08 17:31 | -22.51327 | -47.49272 | 32800 ft | 398 kts | 318° |
| 2026-05-08 17:31 | -22.49128 | -47.51103 | 33057 ft | 400 kts | 318° |
| 2026-05-08 17:31 | -22.46913 | -47.52945 | 33306 ft | 402 kts | 318° |
| 2026-05-08 17:31 | -22.44611 | -47.54630 | 33538 ft | 409 kts | 327° |
| 2026-05-08 17:32 | -22.42009 | -47.55940 | 33710 ft | 417 kts | 334° |
| 2026-05-08 17:32 | -22.39218 | -47.56895 | 33935 ft | 425 kts | 342° |
| 2026-05-08 17:32 | -22.36286 | -47.57455 | 34179 ft | 429 kts | 345° |
| 2026-05-08 17:32 | -22.33326 | -47.57936 | 34393 ft | 431 kts | 346° |
| 2026-05-08 17:33 | -22.30353 | -47.58401 | 34622 ft | 431 kts | 346° |
| 2026-05-08 17:33 | -22.27380 | -47.58868 | 34839 ft | 432 kts | 346° |
| 2026-05-08 17:33 | -22.24400 | -47.59346 | 35035 ft | 434 kts | 345° |
| 2026-05-08 17:33 | -22.21411 | -47.59836 | 35242 ft | 435 kts | 345° |
| 2026-05-08 17:34 | -22.18415 | -47.60333 | 35444 ft | 436 kts | 345° |
| 2026-05-08 17:34 | -22.15414 | -47.60835 | 35627 ft | 438 kts | 345° |
| 2026-05-08 17:34 | -22.12400 | -47.61341 | 35795 ft | 439 kts | 345° |
| 2026-05-08 17:34 | -22.09372 | -47.61850 | 35979 ft | 440 kts | 345° |
| 2026-05-08 17:35 | -22.06342 | -47.62358 | 36242 ft | 439 kts | 345° |
| 2026-05-08 17:35 | -22.03329 | -47.62861 | 36551 ft | 437 kts | 345° |
| 2026-05-08 17:35 | -21.97285 | -47.63876 | 36743 ft | 441 kts | 345° |
| 2026-05-08 17:36 | -21.94250 | -47.64383 | 36983 ft | 441 kts | 345° |
| 2026-05-08 17:36 | -21.91230 | -47.64887 | 37288 ft | 438 kts | 345° |
| 2026-05-08 17:36 | -21.88258 | -47.65383 | 37505 ft | 438 kts | 345° |
| 2026-05-08 17:36 | -21.85241 | -47.65886 | 37652 ft | 439 kts | 345° |
| 2026-05-08 17:37 | -21.82223 | -47.66392 | 37827 ft | 439 kts | 345° |
| 2026-05-08 17:37 | -21.79205 | -47.66896 | 37961 ft | 439 kts | 345° |
| 2026-05-08 17:37 | -21.73124 | -47.67914 | 37957 ft | 445 kts | 345° |
| 2026-05-08 17:38 | -21.67003 | -47.68933 | 37957 ft | 446 kts | 345° |
| 2026-05-08 17:38 | -21.60875 | -47.69953 | 37957 ft | 446 kts | 345° |
| 2026-05-08 17:39 | -21.54747 | -47.70965 | 37955 ft | 445 kts | 345° |
| 2026-05-08 17:39 | -21.48619 | -47.71971 | 37945 ft | 446 kts | 345° |
| 2026-05-08 17:40 | -21.42486 | -47.72978 | 37944 ft | 446 kts | 345° |
| 2026-05-08 17:40 | -21.36358 | -47.73984 | 37958 ft | 446 kts | 345° |
| 2026-05-08 17:41 | -21.30225 | -47.74990 | 37958 ft | 446 kts | 345° |
| 2026-05-08 17:41 | -21.24088 | -47.75996 | 37964 ft | 446 kts | 345° |
| 2026-05-08 17:42 | -21.17960 | -47.77001 | 37966 ft | 446 kts | 345° |
| 2026-05-08 17:42 | -21.11814 | -47.77980 | 37964 ft | 447 kts | 346° |
| 2026-05-08 17:43 | -21.05639 | -47.78822 | 37936 ft | 448 kts | 347° |
| 2026-05-08 17:43 | -20.99450 | -47.79640 | 37939 ft | 448 kts | 347° |
| 2026-05-08 17:44 | -20.93256 | -47.80474 | 37945 ft | 449 kts | 347° |
| 2026-05-08 17:44 | -20.87050 | -47.81319 | 37940 ft | 450 kts | 346° |
| 2026-05-08 17:45 | -20.80882 | -47.82159 | 37920 ft | 450 kts | 347° |
| 2026-05-08 17:45 | -20.74670 | -47.83005 | 37941 ft | 450 kts | 347° |
| 2026-05-08 17:46 | -20.68445 | -47.83852 | 37945 ft | 451 kts | 347° |
| 2026-05-08 17:46 | -20.62208 | -47.84700 | 37943 ft | 452 kts | 347° |
| 2026-05-08 17:47 | -20.55969 | -47.85547 | 37930 ft | 452 kts | 347° |
| 2026-05-08 17:47 | -20.50755 | -47.86254 | 37948 ft | 452 kts | 347° |
| 2026-05-08 17:48 | -20.43498 | -47.87238 | 37950 ft | 453 kts | 347° |
| 2026-05-08 17:48 | -20.37242 | -47.88086 | 37941 ft | 453 kts | 347° |
| 2026-05-08 17:49 | -20.32037 | -47.88791 | 37928 ft | 454 kts | 347° |
| 2026-05-08 17:49 | -20.25776 | -47.89638 | 37933 ft | 454 kts | 347° |
| 2026-05-08 17:50 | -20.19509 | -47.90486 | 37939 ft | 454 kts | 347° |
| 2026-05-08 17:50 | -20.13238 | -47.91335 | 37933 ft | 455 kts | 347° |
| 2026-05-08 17:51 | -20.06957 | -47.92183 | 37963 ft | 455 kts | 347° |
| 2026-05-08 17:51 | -20.00669 | -47.93032 | 37991 ft | 456 kts | 347° |
| 2026-05-08 17:52 | -19.94373 | -47.93881 | 38009 ft | 456 kts | 347° |
| 2026-05-08 17:53 | -19.84920 | -47.95155 | 38037 ft | 457 kts | 346° |
| 2026-05-08 17:53 | -19.78610 | -47.96005 | 38064 ft | 457 kts | 347° |
| 2026-05-08 17:54 | -19.72296 | -47.96854 | 38052 ft | 458 kts | 347° |
| 2026-05-08 17:54 | -19.65976 | -47.97704 | 37958 ft | 458 kts | 347° |
| 2026-05-08 17:55 | -19.59653 | -47.98553 | 37955 ft | 458 kts | 347° |
| 2026-05-08 17:55 | -19.53325 | -47.99402 | 37966 ft | 458 kts | 347° |
| 2026-05-08 17:56 | -19.46996 | -48.00250 | 37970 ft | 458 kts | 347° |
| 2026-05-08 17:56 | -19.40710 | -48.01093 | 37960 ft | 458 kts | 347° |
| 2026-05-08 17:57 | -19.34395 | -48.01938 | 37972 ft | 457 kts | 347° |
| 2026-05-08 17:57 | -19.28085 | -48.02788 | 37960 ft | 457 kts | 346° |
| 2026-05-08 17:58 | -19.21787 | -48.03680 | 37975 ft | 456 kts | 346° |
| 2026-05-08 17:58 | -19.15497 | -48.04579 | 37966 ft | 456 kts | 346° |
| 2026-05-08 17:59 | -19.09199 | -48.05473 | 37961 ft | 456 kts | 346° |
| 2026-05-08 17:59 | -19.02917 | -48.06360 | 37962 ft | 456 kts | 346° |
| 2026-05-08 18:00 | -18.96636 | -48.07248 | 38062 ft | 455 kts | 346° |
| 2026-05-08 18:00 | -18.87364 | -48.09065 | 38093 ft | 445 kts | 334° |
| 2026-05-08 18:01 | -18.81581 | -48.11358 | 38088 ft | 444 kts | 332° |
| 2026-05-08 18:01 | -18.75814 | -48.13692 | 38075 ft | 445 kts | 333° |
| 2026-05-08 18:02 | -18.70979 | -48.15578 | 38058 ft | 446 kts | 334° |
| 2026-05-08 18:02 | -18.64154 | -48.18184 | 38010 ft | 447 kts | 334° |
| 2026-05-08 18:03 | -18.58306 | -48.20403 | 37987 ft | 446 kts | 334° |
| 2026-05-08 18:03 | -18.52502 | -48.22607 | 37958 ft | 446 kts | 334° |
| 2026-05-08 18:04 | -18.46653 | -48.24828 | 37954 ft | 447 kts | 334° |
| 2026-05-08 18:04 | -18.40863 | -48.27026 | 37951 ft | 445 kts | 334° |
| 2026-05-08 18:05 | -18.37963 | -48.28125 | 37767 ft | 443 kts | 334° |
| 2026-05-08 18:05 | -18.35060 | -48.29226 | 37273 ft | 441 kts | 334° |
| 2026-05-08 18:05 | -18.32195 | -48.30311 | 36703 ft | 434 kts | 334° |
| 2026-05-08 18:05 | -18.29379 | -48.31377 | 36167 ft | 427 kts | 334° |
| 2026-05-08 18:06 | -18.26592 | -48.32434 | 35572 ft | 425 kts | 335° |
| 2026-05-08 18:06 | -18.23790 | -48.33498 | 34977 ft | 432 kts | 335° |
| 2026-05-08 18:06 | -18.20913 | -48.34593 | 34268 ft | 446 kts | 336° |
| 2026-05-08 18:06 | -18.17976 | -48.35709 | 33374 ft | 448 kts | 336° |
| 2026-05-08 18:07 | -18.15042 | -48.36820 | 32656 ft | 448 kts | 336° |
| 2026-05-08 18:07 | -18.12103 | -48.37932 | 31910 ft | 450 kts | 337° |
| 2026-05-08 18:07 | -18.09152 | -48.39050 | 31137 ft | 452 kts | 337° |
| 2026-05-08 18:07 | -18.06199 | -48.40167 | 30550 ft | 449 kts | 337° |
| 2026-05-08 18:08 | -18.03265 | -48.41277 | 29973 ft | 449 kts | 337° |
| 2026-05-08 18:08 | -18.00318 | -48.42393 | 29379 ft | 450 kts | 337° |
| 2026-05-08 18:08 | -17.97383 | -48.43504 | 28791 ft | 446 kts | 337° |
| 2026-05-08 18:08 | -17.94475 | -48.44604 | 28230 ft | 442 kts | 338° |
| 2026-05-08 18:09 | -17.91603 | -48.45690 | 27697 ft | 437 kts | 338° |
| 2026-05-08 18:09 | -17.88789 | -48.46754 | 27165 ft | 433 kts | 338° |
| 2026-05-08 18:09 | -17.85965 | -48.47822 | 26637 ft | 430 kts | 338° |
| 2026-05-08 18:09 | -17.83128 | -48.48895 | 26114 ft | 426 kts | 338° |
| 2026-05-08 18:10 | -17.80389 | -48.49930 | 25601 ft | 423 kts | 338° |
| 2026-05-08 18:10 | -17.77628 | -48.50974 | 25072 ft | 421 kts | 339° |
| 2026-05-08 18:10 | -17.74884 | -48.52010 | 24549 ft | 418 kts | 339° |
| 2026-05-08 18:10 | -17.72154 | -48.53040 | 24025 ft | 416 kts | 339° |
| 2026-05-08 18:11 | -17.69464 | -48.54132 | 23503 ft | 414 kts | 336° |
| 2026-05-08 18:11 | -17.66844 | -48.55363 | 22920 ft | 411 kts | 334° |
| 2026-05-08 18:11 | -17.64271 | -48.56633 | 22366 ft | 407 kts | 334° |
| 2026-05-08 18:11 | -17.61719 | -48.57896 | 21859 ft | 404 kts | 334° |
| 2026-05-08 18:12 | -17.59188 | -48.59137 | 21354 ft | 400 kts | 334° |
| 2026-05-08 18:12 | -17.56670 | -48.60356 | 20853 ft | 397 kts | 334° |
| 2026-05-08 18:12 | -17.54172 | -48.61555 | 20359 ft | 394 kts | 335° |
| 2026-05-08 18:12 | -17.51688 | -48.62744 | 19856 ft | 391 kts | 335° |
| 2026-05-08 18:13 | -17.49218 | -48.63924 | 19351 ft | 389 kts | 335° |
| 2026-05-08 18:13 | -17.46756 | -48.65101 | 18847 ft | 388 kts | 335° |
| 2026-05-08 18:13 | -17.44304 | -48.66272 | 18351 ft | 387 kts | 335° |
| 2026-05-08 18:13 | -17.41860 | -48.67439 | 17788 ft | 385 kts | 335° |
| 2026-05-08 18:14 | -17.39428 | -48.68600 | 17278 ft | 382 kts | 335° |
| 2026-05-08 18:14 | -17.37022 | -48.69749 | 16787 ft | 379 kts | 335° |
| 2026-05-08 18:14 | -17.34629 | -48.70891 | 16299 ft | 376 kts | 335° |
| 2026-05-08 18:14 | -17.32256 | -48.72024 | 15828 ft | 374 kts | 336° |
| 2026-05-08 18:15 | -17.29900 | -48.73148 | 15340 ft | 371 kts | 336° |
| 2026-05-08 18:15 | -17.27555 | -48.74267 | 14871 ft | 369 kts | 336° |
| 2026-05-08 18:15 | -17.25227 | -48.75377 | 14386 ft | 367 kts | 336° |
| 2026-05-08 18:15 | -17.22911 | -48.76481 | 13907 ft | 365 kts | 337° |
| 2026-05-08 18:16 | -17.20606 | -48.77580 | 13387 ft | 363 kts | 336° |
| 2026-05-08 18:16 | -17.18314 | -48.78672 | 12894 ft | 360 kts | 336° |
| 2026-05-08 18:16 | -17.16047 | -48.79752 | 12422 ft | 357 kts | 336° |
| 2026-05-08 18:16 | -17.13800 | -48.80822 | 11960 ft | 353 kts | 336° |
| 2026-05-08 18:17 | -17.11571 | -48.81883 | 11507 ft | 350 kts | 336° |
| 2026-05-08 18:17 | -17.09365 | -48.82931 | 11069 ft | 347 kts | 336° |
| 2026-05-08 18:17 | -17.07185 | -48.83967 | 10738 ft | 341 kts | 336° |
| 2026-05-08 18:17 | -17.05065 | -48.84974 | 10587 ft | 329 kts | 335° |
| 2026-05-08 18:18 | -17.03039 | -48.85936 | 10429 ft | 310 kts | 335° |
| 2026-05-08 18:18 | -17.01137 | -48.86840 | 10286 ft | 292 kts | 335° |
| 2026-05-08 18:18 | -16.99329 | -48.87699 | 10179 ft | 280 kts | 335° |
| 2026-05-08 18:18 | -16.97573 | -48.88532 | 10086 ft | 274 kts | 335° |
| 2026-05-08 18:19 | -16.95848 | -48.89351 | 9951 ft | 271 kts | 335° |
| 2026-05-08 18:19 | -16.94121 | -48.90171 | 9680 ft | 273 kts | 335° |
| 2026-05-08 18:19 | -16.92408 | -48.90984 | 9370 ft | 268 kts | 335° |
| 2026-05-08 18:19 | -16.90718 | -48.91786 | 9065 ft | 264 kts | 335° |
| 2026-05-08 18:20 | -16.89056 | -48.92574 | 8793 ft | 262 kts | 336° |
| 2026-05-08 18:20 | -16.87394 | -48.93363 | 8518 ft | 263 kts | 336° |
| 2026-05-08 18:20 | -16.85719 | -48.94157 | 8238 ft | 265 kts | 336° |
| 2026-05-08 18:20 | -16.84050 | -48.94949 | 7965 ft | 262 kts | 336° |
| 2026-05-08 18:21 | -16.82400 | -48.95731 | 7676 ft | 258 kts | 336° |
| 2026-05-08 18:21 | -16.80771 | -48.96504 | 7409 ft | 258 kts | 336° |
| 2026-05-08 18:21 | -16.79129 | -48.97281 | 7133 ft | 258 kts | 336° |
| 2026-05-08 18:21 | -16.77536 | -48.98036 | 7007 ft | 244 kts | 335° |
| 2026-05-08 18:22 | -16.76181 | -48.99059 | 6811 ft | 245 kts | 311° |
| 2026-05-08 18:22 | -16.75228 | -49.00533 | 6561 ft | 244 kts | 303° |
| 2026-05-08 18:22 | -16.74408 | -49.02030 | 6306 ft | 231 kts | 302° |
| 2026-05-08 18:22 | -16.73635 | -49.03449 | 6042 ft | 220 kts | 302° |
| 2026-05-08 18:23 | -16.72900 | -49.04785 | 5769 ft | 210 kts | 302° |
| 2026-05-08 18:23 | -16.72188 | -49.06072 | 5517 ft | 200 kts | 302° |
| 2026-05-08 18:23 | -16.71503 | -49.07303 | 5269 ft | 192 kts | 303° |
| 2026-05-08 18:23 | -16.70846 | -49.08476 | 5064 ft | 182 kts | 303° |
| 2026-05-08 18:24 | -16.70212 | -49.09607 | 4845 ft | 180 kts | 302° |
| 2026-05-08 18:24 | -16.69595 | -49.10703 | 4661 ft | 171 kts | 302° |
| 2026-05-08 18:24 | -16.69009 | -49.11749 | 4468 ft | 160 kts | 304° |
| 2026-05-08 18:24 | -16.68467 | -49.12710 | 4258 ft | 146 kts | 304° |
| 2026-05-08 18:25 | -16.67931 | -49.13661 | 4202 ft | 157 kts | 303° |
| 2026-05-08 18:25 | -16.67390 | -49.14627 | 3898 ft | 147 kts | 303° |
| 2026-05-08 18:25 | -16.66890 | -49.15517 | 3693 ft | 139 kts | 302° |
| 2026-05-08 18:25 | -16.66409 | -49.16380 | 3484 ft | 134 kts | 304° |
| 2026-05-08 18:26 | -16.65899 | -49.17261 | 3389 ft | 156 kts | 302° |
| 2026-05-08 18:26 | -16.65344 | -49.18253 | 3124 ft | 155 kts | 302° |
| 2026-05-08 18:26 | -16.64830 | -49.19188 | 2867 ft | 141 kts | 303° |
| 2026-05-08 18:26 | -16.64344 | -49.20056 | 2699 ft | 139 kts | 302° |
| 2026-05-08 18:27 | -16.63865 | -49.20912 | 2516 ft | 136 kts | 302° |
| 2026-05-08 18:27 | -16.63551 | -49.21480 | 2471 ft | 133 kts | 303° |
| 2026-05-08 18:27 | -16.62912 | -49.22605 | 3138 ft | 133 kts | 304° |
| 2026-05-08 18:27 | -16.62391 | -49.23510 | 3520 ft | 165 kts | 303° |
| 2026-05-08 18:28 | -16.61755 | -49.24637 | 3835 ft | 199 kts | 301° |
| 2026-05-08 18:28 | -16.61022 | -49.25981 | 4033 ft | 228 kts | 303° |
| 2026-05-08 18:28 | -16.59784 | -49.27064 | 4369 ft | 242 kts | 343° |
| 2026-05-08 18:28 | -16.58087 | -49.27085 | 4819 ft | 258 kts | 18° |
| 2026-05-08 18:29 | -16.56618 | -49.26019 | 5498 ft | 267 kts | 49° |
| 2026-05-08 18:29 | -16.55756 | -49.24355 | 6690 ft | 263 kts | 71° |
| 2026-05-08 18:29 | -16.55634 | -49.22433 | 6870 ft | 265 kts | 104° |
| 2026-05-08 18:29 | -16.56365 | -49.20754 | 6973 ft | 250 kts | 116° |
| 2026-05-08 18:30 | -16.57164 | -49.19174 | 6948 ft | 244 kts | 114° |
| 2026-05-08 18:30 | -16.57885 | -49.17590 | 6725 ft | 241 kts | 111° |
| 2026-05-08 18:30 | -16.58539 | -49.15981 | 6516 ft | 239 kts | 110° |
| 2026-05-08 18:30 | -16.59142 | -49.14362 | 6277 ft | 239 kts | 108° |
| 2026-05-08 18:31 | -16.59714 | -49.12732 | 5977 ft | 239 kts | 107° |
| 2026-05-08 18:31 | -16.60260 | -49.11110 | 5741 ft | 237 kts | 107° |
| 2026-05-08 18:31 | -16.60794 | -49.09481 | 5479 ft | 238 kts | 105° |
| 2026-05-08 18:31 | -16.61324 | -49.07851 | 5213 ft | 236 kts | 110° |
| 2026-05-08 18:32 | -16.62342 | -49.06539 | 4892 ft | 238 kts | 150° |
| 2026-05-08 18:32 | -16.63903 | -49.06181 | 4754 ft | 227 kts | 186° |
| 2026-05-08 18:32 | -16.65374 | -49.06630 | 4542 ft | 217 kts | 213° |
| 2026-05-08 18:32 | -16.66453 | -49.07651 | 4395 ft | 205 kts | 238° |
| 2026-05-08 18:33 | -16.67020 | -49.08927 | 4347 ft | 187 kts | 260° |
| 2026-05-08 18:33 | -16.67275 | -49.10236 | 4400 ft | 185 kts | 260° |
| 2026-05-08 18:33 | -16.67548 | -49.11552 | 4397 ft | 183 kts | 262° |
| 2026-05-08 18:33 | -16.67811 | -49.12848 | 4241 ft | 184 kts | 262° |
| 2026-05-08 18:34 | -16.67704 | -49.14099 | 3969 ft | 173 kts | 302° |
| 2026-05-08 18:34 | -16.67112 | -49.15096 | 3804 ft | 153 kts | 302° |
| 2026-05-08 18:34 | -16.66601 | -49.16013 | 3583 ft | 145 kts | 302° |
| 2026-05-08 18:34 | -16.66124 | -49.16888 | 3411 ft | 134 kts | 304° |
| 2026-05-08 18:35 | -16.65608 | -49.17793 | 3260 ft | 153 kts | 302° |
| 2026-05-08 18:35 | -16.65077 | -49.18748 | 2990 ft | 148 kts | 300° |
| 2026-05-08 18:35 | -16.64590 | -49.19645 | 2782 ft | 135 kts | 303° |
| 2026-05-08 18:35 | -16.64103 | -49.20479 | 2613 ft | 135 kts | 303° |
| 2026-05-08 18:36 | -16.63633 | -49.21332 | 2469 ft | 133 kts | 303° |
| 2026-05-08 18:36 | -16.63200 | -49.22120 | 2548 ft | 133 kts | 302° |
| 2026-05-08 18:36 | -16.62681 | -49.23075 | 2899 ft | 177 kts | 302° |
| 2026-05-08 18:36 | -16.61979 | -49.24352 | 3233 ft | 218 kts | 303° |
| 2026-05-08 18:37 | -16.61001 | -49.25488 | 3815 ft | 209 kts | 328° |
| 2026-05-08 18:37 | -16.59641 | -49.25887 | 3994 ft | 206 kts | 1° |
| 2026-05-08 18:37 | -16.58724 | -49.25662 | 3978 ft | 205 kts | 26° |
| 2026-05-08 18:37 | -16.57706 | -49.24639 | 3976 ft | 211 kts | 61° |
| 2026-05-08 18:38 | -16.57447 | -49.23158 | 3967 ft | 212 kts | 97° |
| 2026-05-08 18:38 | -16.58011 | -49.21766 | 3998 ft | 213 kts | 121° |
| 2026-05-08 18:38 | -16.58799 | -49.20463 | 4010 ft | 212 kts | 121° |
| 2026-05-08 18:38 | -16.59569 | -49.19146 | 3994 ft | 212 kts | 120° |
| 2026-05-08 18:39 | -16.60328 | -49.17851 | 4007 ft | 206 kts | 120° |
| 2026-05-08 18:39 | -16.61113 | -49.16563 | 4005 ft | 215 kts | 120° |
| 2026-05-08 18:39 | -16.61938 | -49.15251 | 4012 ft | 216 kts | 121° |
| 2026-05-08 18:39 | -16.62745 | -49.13940 | 4008 ft | 213 kts | 120° |
| 2026-05-08 18:40 | -16.63853 | -49.12248 | 4029 ft | 213 kts | 129° |
| 2026-05-08 18:40 | -16.64614 | -49.11590 | 4138 ft | 211 kts | 150° |
| 2026-05-08 18:40 | -16.66039 | -49.11257 | 3924 ft | 211 kts | 188° |
| 2026-05-08 18:40 | -16.67302 | -49.11893 | 3657 ft | 197 kts | 230° |
| 2026-05-08 18:41 | -16.67865 | -49.13034 | 3622 ft | 162 kts | 266° |
| 2026-05-08 18:41 | -16.67721 | -49.14098 | 3659 ft | 141 kts | 295° |
| 2026-05-08 18:41 | -16.67247 | -49.14994 | 3796 ft | 137 kts | 304° |
| 2026-05-08 18:41 | -16.66704 | -49.15807 | 3801 ft | 138 kts | 309° |
| 2026-05-08 18:42 | -16.66223 | -49.16658 | 3678 ft | 137 kts | 299° |
| 2026-05-08 18:42 | -16.65759 | -49.17568 | 3477 ft | 146 kts | 302° |
| 2026-05-08 18:42 | -16.65234 | -49.18471 | 3230 ft | 145 kts | 301° |
| 2026-05-08 18:42 | -16.64733 | -49.19376 | 2903 ft | 143 kts | 301° |
| 2026-05-08 18:43 | -16.64242 | -49.20242 | 2654 ft | 136 kts | 302° |
| 2026-05-08 18:43 | -16.63767 | -49.21094 | 2488 ft | 134 kts | 302° |
| 2026-05-08 18:43 | -16.63353 | -49.21828 | 2447 ft | 90 kts | 300° |
| 2026-05-08 18:43 | -16.63121 | -49.22242 | 2455 ft | 56 kts | 301° |
| 2026-05-08 18:44 | -16.62950 | -49.22528 | 2456 ft | 32 kts | 315° |
| 2026-05-08 18:44 | -16.62812 | -49.22629 | 2461 ft | 15 kts | 328° |
| 2026-05-08 18:44 | -16.62737 | -49.22600 | 2461 ft | 15 kts | 90° |
| 2026-05-08 18:44 | -16.62782 | -49.22506 | 2460 ft | 15 kts | 120° |
| 2026-05-08 18:45 | -16.62840 | -49.22403 | 2455 ft | 19 kts | 121° |
| 2026-05-08 18:45 | -16.62918 | -49.22265 | 2453 ft | 24 kts | 121° |
| 2026-05-08 18:45 | -16.62986 | -49.22112 | 2444 ft | 23 kts | 100° |
| 2026-05-08 18:45 | -16.62976 | -49.21945 | 2444 ft | 23 kts | 77° |
| 2026-05-08 18:46 | -16.62942 | -49.21785 | 2456 ft | 22 kts | 78° |
| 2026-05-08 18:46 | -16.62925 | -49.21710 | 2460 ft | 8 kts | 78° |
| 2026-05-08 18:46 | -16.62923 | -49.21641 | 2464 ft | 13 kts | 120° |
| 2026-05-08 18:46 | -16.62994 | -49.21596 | 2463 ft | 7 kts | 141° |
| 2026-05-08 18:47 | -16.62990 | -49.21563 | 2464 ft | 7 kts | 69° |
| 2026-05-08 18:47 | -16.62977 | -49.21535 | 2461 ft | 1 kts | 62° |
| 2026-05-08 18:47 | -16.62975 | -49.21531 | 2461 ft | 0 kts | 62° |